Time;durP1;ratioP1;P1;durP2;ratioP2;P2;SDS_P1;SDS_P2;PMS_P1;PMS_P2;Temp;Humidity;BMP_temperature;BMP_pressure;BME280_temperature;BME280_humidity;BME280_pressure;Samples;Min_cycle;Max_cycle;Signal;HPM_P1;HPM_P2
2022/03/08 00:02:22;;;;;;;12.73;11.02;;;;;;;18.78;34.08;101563.28;5073826;28;20047;-86
2022/03/08 00:04:50;;;;;;;18.80;12.00;;;;;;;18.80;34.17;101565.88;5074068;28;20048;-86
2022/03/08 00:07:17;;;;;;;12.68;10.90;;;;;;;18.80;34.09;101570.34;5074182;28;20045;-87
2022/03/08 00:09:44;;;;;;;12.68;11.48;;;;;;;18.80;33.90;101567.66;5073604;28;20370;-87
2022/03/08 00:12:12;;;;;;;12.77;11.38;;;;;;;18.80;33.82;101571.25;5073421;28;20051;-87
2022/03/08 00:14:40;;;;;;;19.55;12.52;;;;;;;18.79;33.80;101561.44;5074798;28;20048;-87
2022/03/08 00:17:13;;;;;;;14.23;11.35;;;;;;;18.80;33.84;101563.19;5074273;28;20053;-87
2022/03/08 00:19:40;;;;;;;14.13;12.07;;;;;;;18.78;33.90;101567.78;5073727;28;20048;-87
2022/03/08 00:22:08;;;;;;;12.25;11.02;;;;;;;18.80;33.69;101567.66;5073291;28;20049;-87
2022/03/08 00:24:35;;;;;;;13.18;11.73;;;;;;;18.80;33.59;101581.09;5073218;28;20045;-87
2022/03/08 00:27:03;;;;;;;13.02;11.02;;;;;;;18.80;33.67;101581.97;5073361;28;20404;-86
2022/03/08 00:29:30;;;;;;;12.70;11.40;;;;;;;18.80;33.37;101576.59;5072262;28;20488;-86
2022/03/08 00:31:58;;;;;;;11.63;10.43;;;;;;;18.80;33.70;101573.91;5073177;28;20048;-86
2022/03/08 00:34:27;;;;;;;12.65;11.32;;;;;;;18.80;33.54;101584.66;5073825;28;20040;-85
2022/03/08 00:36:56;;;;;;;12.32;11.15;;;;;;;18.82;33.42;101587.22;5072686;28;20053;-86
2022/03/08 00:39:23;;;;;;;14.20;11.48;;;;;;;18.81;33.08;101586.34;5072848;28;20063;-86
2022/03/08 00:41:50;;;;;;;13.32;11.23;;;;;;;18.81;33.34;101586.34;5056198;28;20396;-86
2022/03/08 00:44:18;;;;;;;12.88;11.20;;;;;;;18.82;33.57;101587.22;5072945;28;20056;-86
2022/03/08 00:46:45;;;;;;;11.57;10.48;;;;;;;18.82;33.42;101598.78;5073298;28;20049;-86
2022/03/08 00:49:13;;;;;;;13.13;11.18;;;;;;;18.82;33.35;101598.78;5074226;28;20056;-86
2022/03/08 00:51:41;;;;;;;11.85;10.65;;;;;;;18.82;33.43;101598.78;5081535;28;20049;-86
2022/03/08 00:54:08;;;;;;;12.68;10.82;;;;;;;18.83;33.36;101605.88;5083906;28;20057;-86
2022/03/08 00:56:36;;;;;;;13.10;11.07;;;;;;;18.84;33.22;101610.28;5056436;28;20067;-86
2022/03/08 00:59:03;;;;;;;12.88;11.27;;;;;;;18.85;33.38;101608.47;5072262;28;20055;-86
2022/03/08 01:01:31;;;;;;;14.90;11.05;;;;;;;18.85;33.55;101616.50;5061036;28;20166;-86
2022/03/08 01:03:59;;;;;;;12.30;11.00;;;;;;;18.85;33.18;101617.38;5052981;28;20052;-86
2022/03/08 01:06:26;;;;;;;12.10;10.90;;;;;;;18.86;33.50;101620.91;5035955;28;20060;-86
2022/03/08 01:08:55;;;;;;;12.43;11.10;;;;;;;18.86;33.32;101610.16;5056424;28;20064;-86
2022/03/08 01:11:24;;;;;;;12.43;11.20;;;;;;;18.86;33.44;101615.53;5056118;28;20489;-86
2022/03/08 01:13:54;;;;;;;14.10;11.48;;;;;;;18.87;33.53;101612.72;5055643;28;20413;-86
2022/03/08 01:16:21;;;;;;;12.65;11.10;;;;;;;18.87;33.43;101617.25;5059634;28;20048;-86
2022/03/08 01:18:49;;;;;;;12.27;10.90;;;;;;;18.87;33.49;101609.19;5076867;28;20060;-86
2022/03/08 01:21:17;;;;;;;12.75;11.05;;;;;;;18.87;33.50;101617.25;5075801;28;20040;-85
2022/03/08 01:23:44;;;;;;;11.43;10.32;;;;;;;18.89;33.67;101615.31;5078031;28;20041;-85
2022/03/08 01:26:11;;;;;;;12.40;11.10;;;;;;;18.88;33.59;101613.59;5076007;28;20048;-85
2022/03/08 01:28:39;;;;;;;13.30;11.18;;;;;;;18.88;33.59;101614.47;5076040;28;20049;-87
2022/03/08 01:31:07;;;;;;;12.27;10.68;;;;;;;18.88;33.36;101603.75;5076066;28;20044;-86
2022/03/08 01:33:35;;;;;;;12.10;10.90;;;;;;;18.90;33.26;101611.66;5075649;28;20047;-87
2022/03/08 01:36:03;;;;;;;12.25;10.55;;;;;;;18.89;33.32;101610.81;5075253;28;20052;-87
2022/03/08 01:38:30;;;;;;;11.25;10.15;;;;;;;18.87;33.31;101618.09;5075068;28;20045;-87
2022/03/08 01:40:58;;;;;;;12.18;10.70;;;;;;;18.88;33.24;101627.88;5075152;28;20056;-87
2022/03/08 01:43:25;;;;;;;11.25;10.10;;;;;;;18.88;33.38;101630.56;5076490;28;20516;-87
2022/03/08 01:45:54;;;;;;;13.00;11.02;;;;;;;18.88;33.41;101640.41;5076173;28;20404;-88
2022/03/08 01:48:23;;;;;;;10.80;9.77;;;;;;;18.88;33.63;101637.72;5060545;28;20048;-88
2022/03/08 01:50:50;;;;;;;12.45;11.23;;;;;;;18.86;33.32;101631.63;5075992;28;20048;-87
2022/03/08 01:53:19;;;;;;;12.68;11.25;;;;;;;18.88;33.30;101624.31;5077306;28;20412;-87
2022/03/08 01:55:46;;;;;;;12.52;11.23;;;;;;;18.88;33.18;101619.84;5076293;28;20055;-87
2022/03/08 01:58:16;;;;;;;11.55;10.40;;;;;;;18.88;33.35;101625.19;5076911;28;20079;-87
2022/03/08 02:00:44;;;;;;;12.07;10.45;;;;;;;18.88;33.33;101635.03;5072083;28;20155;-86
2022/03/08 02:03:11;;;;;;;11.48;10.25;;;;;;;18.89;33.25;101636.78;5064694;28;20049;-86
2022/03/08 02:05:39;;;;;;;11.82;10.63;;;;;;;18.89;33.27;101628.75;5056186;28;20500;-87
2022/03/08 02:08:07;;;;;;;12.48;10.55;;;;;;;18.90;33.26;101627.75;5056578;28;20049;-87
2022/03/08 02:10:34;;;;;;;12.10;10.82;;;;;;;18.91;33.29;101632.16;5055184;28;20072;-86
2022/03/08 02:13:02;;;;;;;13.10;11.10;;;;;;;18.90;33.27;101633.97;5055252;28;20045;-87
2022/03/08 02:15:29;;;;;;;11.25;10.15;;;;;;;18.91;33.44;101633.00;5055753;28;20396;-85
2022/03/08 02:18:00;;;;;;;11.43;10.25;;;;;;;18.91;33.26;101635.69;5055180;28;20142;-85
2022/03/08 02:20:29;;;;;;;11.88;10.68;;;;;;;18.91;33.20;101643.75;5055938;28;20516;-85
2022/03/08 02:22:56;;;;;;;12.32;11.02;;;;;;;18.91;33.23;101651.78;5055812;28;20067;-85
2022/03/08 02:25:24;;;;;;;11.90;10.65;;;;;;;18.92;33.39;101664.25;5055900;28;20055;-85
2022/03/08 02:27:54;;;;;;;11.20;10.00;;;;;;;18.92;33.14;101666.06;5056101;28;20048;-87
2022/03/08 02:30:23;;;;;;;12.00;10.80;;;;;;;18.92;33.34;101672.31;5054819;28;20064;-87
2022/03/08 02:32:52;;;;;;;12.98;11.05;;;;;;;18.91;33.38;101667.88;5055990;28;20041;-87
2022/03/08 02:35:22;;;;;;;11.82;10.75;;;;;;;18.91;33.05;101675.94;5055612;28;20394;-87
2022/03/08 02:37:52;;;;;;;11.38;10.23;;;;;;;18.92;33.16;101682.16;5054747;28;20056;-88
2022/03/08 02:40:23;;;;;;;11.50;10.32;;;;;;;18.91;33.08;101677.75;5055991;28;20055;-88
2022/03/08 02:42:50;;;;;;;11.48;10.38;;;;;;;18.92;33.18;101679.47;5054752;28;20049;-87
2022/03/08 02:45:18;;;;;;;12.40;11.15;;;;;;;18.91;33.17;101675.09;5055869;28;20049;-88
2022/03/08 02:47:46;;;;;;;11.18;10.07;;;;;;;18.91;33.01;101677.75;5056252;28;20052;-87
2022/03/08 02:50:15;;;;;;;11.38;10.25;;;;;;;18.91;33.09;101678.63;5055643;28;20045;-87
2022/03/08 02:52:45;;;;;;;12.95;11.00;;;;;;;18.91;33.24;101683.97;5055255;28;20041;-86
2022/03/08 02:55:13;;;;;;;12.32;11.13;;;;;;;18.91;33.23;101688.50;5055292;28;20049;-85
2022/03/08 02:57:41;;;;;;;10.68;9.57;;;;;;;18.90;32.97;101690.31;5055358;28;20400;-85
2022/03/08 03:00:11;;;;;;;11.48;10.38;;;;;;;18.91;33.08;101681.31;5056017;28;20072;-87
2022/03/08 03:02:39;;;;;;;11.70;10.60;;;;;;;18.91;33.00;101683.13;5058009;28;20513;-86
2022/03/08 03:05:09;;;;;;;11.38;10.27;;;;;;;18.91;33.09;101683.13;5073092;28;20427;-87
2022/03/08 03:07:36;;;;;;;12.75;11.30;;;;;;;18.91;32.85;101686.66;5075640;28;20412;-87
2022/03/08 03:10:06;;;;;;;11.35;10.25;;;;;;;18.93;32.88;101689.25;5074143;28;20052;-85
2022/03/08 03:12:34;;;;;;;11.65;10.55;;;;;;;18.91;32.99;101689.34;5073517;28;20055;-85
2022/03/08 03:15:04;;;;;;;12.63;11.40;;;;;;;18.92;32.93;101691.09;5074660;28;20044;-87
2022/03/08 03:17:32;;;;;;;11.65;10.45;;;;;;;18.92;32.88;101691.09;5074768;28;20044;-86
2022/03/08 03:19:59;;;;;;;12.20;10.65;;;;;;;18.93;32.86;101686.59;5074849;28;20040;-85
2022/03/08 03:22:26;;;;;;;11.77;10.68;;;;;;;18.93;32.91;101692.81;5075511;28;20051;-86
2022/03/08 03:24:54;;;;;;;10.93;9.85;;;;;;;18.93;32.86;101691.94;5073774;28;20036;-87
2022/03/08 03:27:21;;;;;;;12.00;10.80;;;;;;;18.93;32.78;101697.31;5074813;28;20051;-87
2022/03/08 03:29:48;;;;;;;11.98;10.80;;;;;;;18.93;32.72;101695.47;5073877;28;20055;-87
2022/03/08 03:32:16;;;;;;;11.52;10.43;;;;;;;18.94;32.93;101694.50;5075208;28;20049;-87
2022/03/08 03:34:43;;;;;;;11.32;10.23;;;;;;;18.94;32.81;101696.34;5074425;28;20049;-87
2022/03/08 03:37:11;;;;;;;12.85;11.57;;;;;;;18.94;32.82;101694.50;5074994;28;20049;-86
2022/03/08 03:39:41;;;;;;;11.15;10.05;;;;;;;18.94;32.75;101697.19;5072999;28;20051;-85
2022/03/08 03:42:09;;;;;;;12.02;10.82;;;;;;;18.94;32.91;101693.66;5074482;28;20048;-86
2022/03/08 03:44:36;;;;;;;12.30;11.10;;;;;;;18.94;32.78;101699.03;5074488;28;20048;-85
2022/03/08 03:47:04;;;;;;;12.68;10.50;;;;;;;18.94;32.88;101704.38;5072906;28;20055;-85
2022/03/08 03:49:32;;;;;;;10.38;9.38;;;;;;;18.94;32.60;101701.69;5074256;28;20055;-86
2022/03/08 03:51:59;;;;;;;10.63;9.60;;;;;;;18.92;32.82;101695.56;5072902;28;20037;-85
2022/03/08 03:54:26;;;;;;;10.68;9.57;;;;;;;18.92;32.85;101704.50;5074078;28;20055;-85
2022/03/08 03:56:54;;;;;;;10.90;9.90;;;;;;;18.92;32.86;101707.19;5073810;28;20052;-85
2022/03/08 03:59:21;;;;;;;11.85;10.23;;;;;;;18.93;32.87;101710.72;5073923;28;20040;-85
2022/03/08 04:01:48;;;;;;;11.85;10.65;;;;;;;18.93;33.05;101713.41;5073831;28;20044;-85
2022/03/08 04:04:16;;;;;;;10.82;9.60;;;;;;;18.91;32.90;101707.28;5053687;28;20036;-85
2022/03/08 04:06:43;;;;;;;10.82;9.73;;;;;;;18.89;32.89;101710.06;5053839;28;20052;-85
2022/03/08 04:09:13;;;;;;;11.77;10.63;;;;;;;18.91;32.82;101718.00;5053825;28;20397;-85
2022/03/08 04:11:40;;;;;;;10.77;9.68;;;;;;;18.91;32.82;101716.19;5053719;28;20051;-86
2022/03/08 04:14:07;;;;;;;11.68;10.48;;;;;;;18.90;32.89;101714.47;5054317;28;20073;-86
2022/03/08 04:16:35;;;;;;;12.05;10.68;;;;;;;18.90;32.83;101719.84;5054392;28;20044;-86
2022/03/08 04:19:03;;;;;;;10.98;9.82;;;;;;;18.90;32.89;101727.03;5053039;28;20045;-86
2022/03/08 04:21:31;;;;;;;11.82;9.85;;;;;;;18.89;32.88;101722.63;5052557;28;20059;-86
2022/03/08 04:23:59;;;;;;;11.68;10.52;;;;;;;18.88;32.86;101713.75;5052933;28;20064;-86
2022/03/08 04:26:26;;;;;;;11.00;9.90;;;;;;;18.90;32.80;101721.66;5052286;28;20049;-86
2022/03/08 04:28:54;;;;;;;10.00;9.02;;;;;;;18.89;32.94;101723.50;5052383;28;20061;-86
2022/03/08 04:31:21;;;;;;;10.18;9.27;;;;;;;18.90;32.73;101727.88;5053886;28;20045;-84
2022/03/08 04:33:48;;;;;;;11.55;10.35;;;;;;;18.91;32.56;101732.28;5052538;28;20060;-88
2022/03/08 04:36:16;;;;;;;12.30;9.48;;;;;;;18.91;33.00;101723.38;5052893;28;20052;-88
2022/03/08 04:38:43;;;;;;;10.85;9.75;;;;;;;18.90;32.98;101727.88;5036836;28;20053;-88
2022/03/08 04:41:10;;;;;;;11.10;10.00;;;;;;;18.92;32.86;101733.13;5053020;28;20048;-87
2022/03/08 04:43:38;;;;;;;11.57;10.38;;;;;;;18.91;32.92;101728.75;5053909;28;20041;-88
2022/03/08 04:46:05;;;;;;;11.57;10.18;;;;;;;18.91;32.93;101729.59;5053721;28;20380;-86
2022/03/08 04:48:33;;;;;;;10.32;9.32;;;;;;;18.91;32.84;101726.06;5053722;28;20068;-87
2022/03/08 04:51:00;;;;;;;10.57;9.48;;;;;;;18.92;32.82;101733.13;5053580;28;20408;-86
2022/03/08 04:53:28;;;;;;;9.70;8.80;;;;;;;18.90;32.94;101727.88;5052322;28;20045;-87
2022/03/08 04:55:55;;;;;;;11.63;10.27;;;;;;;18.91;32.79;101734.97;5052745;28;20045;-86
2022/03/08 04:58:23;;;;;;;11.70;10.50;;;;;;;18.90;32.80;101730.56;5053192;28;20049;-86
2022/03/08 05:00:50;;;;;;;11.50;10.40;;;;;;;18.91;32.93;101732.28;5052923;28;20143;-86
2022/03/08 05:03:18;;;;;;;9.88;8.93;;;;;;;18.92;32.81;101728.66;5053245;28;20144;-87
2022/03/08 05:05:45;;;;;;;10.57;9.48;;;;;;;18.91;32.78;101726.06;5052593;28;20049;-87
2022/03/08 05:08:14;;;;;;;10.55;9.52;;;;;;;18.91;32.76;101731.44;5053453;28;20044;-87
2022/03/08 05:10:41;;;;;;;10.13;9.13;;;;;;;18.90;32.73;101724.34;5053426;28;20485;-86
2022/03/08 05:13:09;;;;;;;11.00;9.95;;;;;;;18.91;32.68;101726.06;5053256;28;20112;-86
2022/03/08 05:15:37;;;;;;;11.90;10.38;;;;;;;18.89;32.79;101725.31;5052011;28;20044;-86
2022/03/08 05:18:04;;;;;;;10.20;9.20;;;;;;;18.89;32.50;101733.38;5052991;28;20424;-86
2022/03/08 05:20:32;;;;;;;10.82;9.77;;;;;;;18.90;32.74;101727.03;5053003;28;20040;-86
2022/03/08 05:23:00;;;;;;;11.25;10.00;;;;;;;18.89;32.89;101725.31;5051727;28;20056;-87
2022/03/08 05:25:28;;;;;;;11.48;9.93;;;;;;;18.90;32.85;101725.22;5051726;28;20045;-87
2022/03/08 05:27:55;;;;;;;10.82;9.73;;;;;;;18.88;32.88;101729.84;5053405;28;20052;-88
2022/03/08 05:30:23;;;;;;;11.05;9.95;;;;;;;18.89;32.94;101730.69;5053437;28;20412;-87
2022/03/08 05:32:50;;;;;;;10.05;9.05;;;;;;;18.89;32.78;101733.38;5054113;28;20052;-87
2022/03/08 05:35:18;;;;;;;10.75;9.63;;;;;;;18.88;32.92;101731.63;5052096;28;20501;-86
2022/03/08 05:37:46;;;;;;;10.90;9.75;;;;;;;18.87;32.59;101738.81;5053609;28;20052;-87
2022/03/08 05:40:13;;;;;;;12.90;10.20;;;;;;;18.86;32.97;101730.91;5052497;28;20079;-86
2022/03/08 05:42:41;;;;;;;11.38;9.57;;;;;;;18.85;32.80;101730.03;5053962;28;20048;-86
2022/03/08 05:45:10;;;;;;;11.02;9.93;;;;;;;18.85;32.68;101729.19;5055962;28;20049;-86
2022/03/08 05:47:38;;;;;;;11.20;10.10;;;;;;;18.83;32.78;101726.59;5054944;28;20045;-87
2022/03/08 05:50:07;;;;;;;12.15;10.18;;;;;;;18.82;32.67;101729.41;5053402;28;20041;-87
2022/03/08 05:52:35;;;;;;;12.13;9.73;;;;;;;18.83;32.65;101736.47;5052534;28;20053;-85
2022/03/08 05:55:03;;;;;;;10.65;9.63;;;;;;;18.83;32.87;101731.09;5056263;28;20416;-85
2022/03/08 05:57:31;;;;;;;12.07;10.05;;;;;;;18.81;32.51;101731.22;5056173;28;20048;-85
2022/03/08 05:59:58;;;;;;;12.25;10.80;;;;;;;18.80;32.49;101720.56;5056062;28;20053;-84
2022/03/08 06:02:26;;;;;;;12.25;9.77;;;;;;;18.81;32.51;101719.63;5055898;28;20037;-85
2022/03/08 06:04:53;;;;;;;11.32;10.18;;;;;;;18.80;32.58;101724.16;5055360;28;20505;-85
2022/03/08 06:07:21;;;;;;;10.30;9.20;;;;;;;18.79;32.51;101722.41;5055566;28;20489;-85
2022/03/08 06:09:48;;;;;;;11.10;9.68;;;;;;;18.79;32.52;101727.78;5055957;28;20049;-85
2022/03/08 06:12:16;;;;;;;10.98;9.88;;;;;;;18.79;32.56;101733.13;5055849;28;20056;-85
2022/03/08 06:14:43;;;;;;;10.80;9.70;;;;;;;18.78;32.42;101732.28;5055562;28;20505;-85
2022/03/08 06:17:10;;;;;;;10.35;9.25;;;;;;;18.77;32.54;101741.31;5055722;28;20049;-85
2022/03/08 06:19:38;;;;;;;10.35;9.35;;;;;;;18.76;32.55;101744.97;5055334;28;20041;-85
2022/03/08 06:22:05;;;;;;;11.32;10.25;;;;;;;18.76;32.42;101744.97;5055950;28;20408;-86
2022/03/08 06:24:33;;;;;;;10.60;9.50;;;;;;;18.75;32.50;101747.72;5055749;28;20392;-85
2022/03/08 06:27:00;;;;;;;10.57;9.48;;;;;;;18.75;32.56;101745.91;5054543;28;20049;-85
2022/03/08 06:29:27;;;;;;;11.20;10.10;;;;;;;18.74;32.58;101746.88;5055656;28;20045;-85
2022/03/08 06:31:55;;;;;;;11.73;10.18;;;;;;;18.75;32.62;101747.72;5055535;28;20052;-85
2022/03/08 06:34:22;;;;;;;11.70;10.52;;;;;;;18.74;32.52;101746.88;5055358;28;20060;-85
2022/03/08 06:36:50;;;;;;;12.82;9.57;;;;;;;18.74;32.58;101752.22;5055692;28;20060;-86
2022/03/08 06:39:17;;;;;;;11.07;9.68;;;;;;;18.73;32.45;101747.84;5055566;28;20041;-86
2022/03/08 06:41:44;;;;;;;10.35;9.30;;;;;;;18.74;32.41;101757.59;5054006;28;20052;-85
2022/03/08 06:44:12;;;;;;;12.13;9.20;;;;;;;18.74;32.59;101751.38;5055168;28;20489;-86
2022/03/08 06:46:44;;;;;;;11.13;10.10;;;;;;;18.73;32.43;101758.56;5054843;28;20056;-85
2022/03/08 06:49:12;;;;;;;11.02;9.88;;;;;;;18.73;32.22;101758.56;5054754;28;20060;-85
2022/03/08 06:51:39;;;;;;;10.38;8.98;;;;;;;18.74;32.45;101770.16;5054645;28;20418;-85
2022/03/08 06:54:08;;;;;;;11.43;9.93;;;;;;;18.74;32.46;101781.75;5053935;28;20053;-85
2022/03/08 06:56:36;;;;;;;10.50;9.50;;;;;;;18.74;32.45;101771.00;5056397;28;20045;-85
2022/03/08 06:59:05;;;;;;;11.30;10.18;;;;;;;18.75;32.29;101772.72;5054534;28;20049;-85
2022/03/08 07:01:32;;;;;;;11.48;10.25;;;;;;;18.75;32.39;101779.91;5055510;28;20045;-85
2022/03/08 07:04:00;;;;;;;11.73;10.52;;;;;;;18.75;32.14;101786.13;5054103;28;20048;-85
2022/03/08 07:06:27;;;;;;;11.70;10.45;;;;;;;18.75;32.52;101786.13;5069915;28;20071;-88
2022/03/08 07:08:55;;;;;;;12.13;9.82;;;;;;;18.76;32.43;101790.56;5054579;28;20044;-86
2022/03/08 07:11:23;;;;;;;12.10;9.70;;;;;;;18.76;32.31;101795.06;5053745;28;20057;-87
2022/03/08 07:13:51;;;;;;;11.93;10.73;;;;;;;18.76;32.32;101800.44;5054378;28;20049;-85
2022/03/08 07:16:19;;;;;;;10.18;9.18;;;;;;;18.76;32.29;101803.97;5054206;28;20041;-86
2022/03/08 07:18:47;;;;;;;10.52;9.27;;;;;;;18.74;32.50;101797.84;5053384;28;20489;-86
2022/03/08 07:21:14;;;;;;;11.63;10.32;;;;;;;18.75;32.26;101801.38;5053659;28;20063;-86
2022/03/08 07:23:41;;;;;;;10.90;9.82;;;;;;;18.74;32.42;101800.53;5053217;28;20045;-85
2022/03/08 07:26:09;;;;;;;10.70;9.60;;;;;;;18.73;32.53;101801.50;5054642;28;20056;-86
2022/03/08 07:28:40;;;;;;;11.75;10.15;;;;;;;18.74;32.18;101805.88;5053238;28;20049;-86
2022/03/08 07:31:08;;;;;;;9.88;8.85;;;;;;;18.75;32.33;101814.78;5054174;28;20052;-86
2022/03/08 07:33:35;;;;;;;10.68;9.57;;;;;;;18.73;32.67;101816.72;5054762;28;20052;-86
2022/03/08 07:36:03;;;;;;;10.98;9.23;;;;;;;18.73;32.68;101819.41;5052743;28;20045;-86
2022/03/08 07:38:31;;;;;;;10.15;8.90;;;;;;;18.74;32.58;101821.97;5055258;28;20056;-86
2022/03/08 07:41:05;;;;;;;11.73;10.55;;;;;;;18.74;32.83;101811.25;5053546;28;20049;-86
2022/03/08 07:43:36;;;;;;;9.88;8.82;;;;;;;18.76;32.74;101808.47;5053695;28;20052;-86
2022/03/08 07:46:07;;;;;;;11.65;9.85;;;;;;;18.76;32.72;101808.47;5054859;28;20427;-88
2022/03/08 07:48:36;;;;;;;12.32;9.13;;;;;;;18.74;33.07;101816.63;5036118;28;20060;-84
2022/03/08 07:51:04;;;;;;;14.77;10.40;;;;;;;18.73;33.56;101828.31;5053678;28;20053;-84
2022/03/08 07:53:32;;;;;;;11.77;9.73;;;;;;;18.70;33.80;101824.97;5053375;28;20096;-82
2022/03/08 07:56:00;;;;;;;11.93;10.23;;;;;;;18.68;33.68;101832.25;5053802;28;20048;-84
2022/03/08 07:58:27;;;;;;;13.07;10.20;;;;;;;18.67;33.32;101839.41;5053727;28;20524;-83
2022/03/08 08:00:55;;;;;;;13.95;10.07;;;;;;;18.67;33.54;101841.25;5055103;28;20045;-84
2022/03/08 08:03:24;;;;;;;12.73;9.40;;;;;;;18.65;33.78;101844.03;5054056;28;20060;-86
2022/03/08 08:05:51;;;;;;;12.20;10.30;;;;;;;18.63;33.42;101840.56;5054661;28;20050;-84
2022/03/08 08:08:19;;;;;;;11.20;10.07;;;;;;;18.61;33.48;101845.19;5053387;28;20045;-84
2022/03/08 08:10:46;;;;;;;16.20;10.48;;;;;;;18.61;33.40;101845.19;5052923;28;20060;-85
2022/03/08 08:13:14;;;;;;;13.80;10.75;;;;;;;18.62;33.51;101844.22;5053142;28;20063;-84
2022/03/08 08:15:41;;;;;;;14.45;12.15;;;;;;;18.61;33.72;101845.19;5058961;28;20048;-83
2022/03/08 08:18:15;;;;;;;16.13;13.60;;;;;;;18.59;32.47;101841.75;5053679;28;20044;-87
2022/03/08 08:20:43;;;;;;;20.05;13.68;;;;;;;18.58;33.37;101853.44;5055114;28;20048;-87
2022/03/08 08:23:10;;;;;;;15.43;12.27;;;;;;;18.56;33.43;101850.03;5074624;28;20071;-86
2022/03/08 08:25:38;;;;;;;18.13;13.88;;;;;;;18.55;32.46;101850.97;5073956;28;20045;-86
2022/03/08 08:28:06;;;;;;;16.00;12.77;;;;;;;18.53;33.00;101847.53;5074893;28;20045;-84
2022/03/08 08:30:34;;;;;;;16.83;13.38;;;;;;;18.52;33.17;101849.34;5072043;28;20380;-86
2022/03/08 08:33:07;;;;;;;14.68;11.73;;;;;;;18.52;33.14;101851.19;5055452;28;20515;-86
2022/03/08 08:35:34;;;;;;;14.35;12.75;;;;;;;18.50;32.71;101850.41;5072041;28;20052;-85
2022/03/08 08:38:02;;;;;;;15.60;12.48;;;;;;;18.49;32.62;101844.19;5073840;28;20396;-84
2022/03/08 08:40:30;;;;;;;13.82;11.93;;;;;;;18.48;32.50;101845.16;5073001;28;20052;-85
2022/03/08 08:42:57;;;;;;;15.27;12.48;;;;;;;18.49;32.81;101846.03;5073808;28;20048;-86
2022/03/08 08:45:25;;;;;;;14.80;12.25;;;;;;;18.49;32.83;101840.66;5074389;28;20044;-85
2022/03/08 08:47:52;;;;;;;14.40;12.30;;;;;;;18.48;32.74;101841.63;5074691;28;20044;-86
2022/03/08 08:50:19;;;;;;;13.98;11.70;;;;;;;18.48;32.45;101845.16;5073071;28;20051;-86
2022/03/08 08:52:47;;;;;;;12.68;11.32;;;;;;;18.49;32.73;101840.66;5073404;28;20578;-85
2022/03/08 08:55:14;;;;;;;14.15;11.90;;;;;;;18.51;33.12;101838.72;5074318;28;20048;-86
2022/03/08 08:57:42;;;;;;;11.73;10.32;;;;;;;18.52;33.15;101840.47;5074740;28;20517;-85
2022/03/08 09:00:10;;;;;;;12.30;10.35;;;;;;;18.52;33.15;101841.31;5073977;28;20044;-85
2022/03/08 09:02:40;;;;;;;12.95;9.55;;;;;;;18.54;33.17;101836.69;5072895;28;20041;-86
2022/03/08 09:05:09;;;;;;;12.82;9.77;;;;;;;18.54;33.35;101835.84;5055508;28;20051;-88
2022/03/08 09:07:37;;;;;;;10.60;9.52;;;;;;;18.55;33.52;101826.81;5073347;28;20480;-87
2022/03/08 09:10:06;;;;;;;10.65;9.55;;;;;;;18.54;33.45;101830.47;5070312;28;20051;-85
2022/03/08 09:12:33;;;;;;;10.05;9.05;;;;;;;18.54;33.71;101831.34;5073888;28;20049;-86
2022/03/08 09:15:02;;;;;;;10.57;9.27;;;;;;;18.54;33.50;101825.97;5072956;28;20043;-86
2022/03/08 09:17:30;;;;;;;12.50;9.70;;;;;;;18.55;33.31;101837.53;5074211;28;20115;-86
2022/03/08 09:19:57;;;;;;;9.73;8.48;;;;;;;18.55;32.76;101832.19;5074402;28;20354;-88
2022/03/08 09:22:24;;;;;;;10.60;8.82;;;;;;;18.54;32.51;101835.84;5072878;28;20044;-87
2022/03/08 09:24:52;;;;;;;10.35;8.18;;;;;;;18.51;31.87;101831.56;5073044;28;20085;-87
2022/03/08 09:27:19;;;;;;;10.18;9.18;;;;;;;18.50;31.57;101847.72;5072600;28;20048;-84
2022/03/08 09:29:47;;;;;;;9.70;8.65;;;;;;;18.50;30.86;101845.91;5076452;28;20059;-87
2022/03/08 09:32:14;;;;;;;11.20;8.35;;;;;;;18.49;31.03;101851.38;5076530;28;20040;-88
2022/03/08 09:34:42;;;;;;;9.02;7.65;;;;;;;18.51;29.78;101841.41;5077892;28;20056;-84
2022/03/08 09:37:10;;;;;;;10.90;8.32;;;;;;;18.53;29.68;101834.97;5077441;28;20043;-86
2022/03/08 09:39:37;;;;;;;8.95;8.05;;;;;;;18.54;30.02;101851.94;5077153;28;20044;-86
2022/03/08 09:42:04;;;;;;;9.38;7.22;;;;;;;18.52;30.42;101848.50;5076556;28;20424;-94
2022/03/08 09:44:32;;;;;;;13.50;7.53;;;;;;;18.54;29.03;101833.16;5076988;28;20059;-89
2022/03/08 09:47:00;;;;;;;7.35;6.55;;;;;;;18.57;28.54;101835.63;5076125;28;20048;-91
2022/03/08 09:49:28;;;;;;;9.02;6.90;;;;;;;18.60;28.77;101842.63;5059308;28;20060;-83
2022/03/08 09:51:55;;;;;;;9.27;6.82;;;;;;;18.57;29.10;101842.81;5076819;28;20404;-85
2022/03/08 09:54:23;;;;;;;7.40;6.60;;;;;;;18.60;27.39;101839.94;5076637;28;20408;-85
2022/03/08 09:56:50;;;;;;;8.13;6.20;;;;;;;18.59;28.30;101846.25;5075861;28;20056;-81
2022/03/08 09:59:19;;;;;;;8.52;6.10;;;;;;;18.58;28.46;101845.41;5077027;28;20053;-83
2022/03/08 10:01:47;;;;;;;8.20;6.15;;;;;;;18.59;28.13;101841.75;5077064;28;20048;-83
2022/03/08 10:04:20;;;;;;;7.78;5.93;;;;;;;18.56;27.59;101841.97;5076306;28;20051;-82
2022/03/08 10:07:09;;;;;;;7.00;6.05;;;;;;;18.53;28.48;101831.44;5055942;28;20401;-83
2022/03/08 10:09:37;;;;;;;8.70;6.03;;;;;;;18.51;28.17;101850.34;5063820;28;20045;-83
2022/03/08 10:12:17;;;;;;;8.05;6.70;;;;;;;18.45;27.65;101842.69;5057442;28;20040;-82
2022/03/08 10:14:45;;;;;;;11.75;5.97;;;;;;;18.43;28.13;101835.69;5073448;28;20044;-82
2022/03/08 10:17:34;;;;;;;7.90;5.93;;;;;;;18.41;28.04;101829.56;5076025;28;20048;-82
2022/03/08 10:20:03;;;;;;;6.25;4.93;;;;;;;18.35;30.10;101838.00;5075330;28;20045;-81
2022/03/08 10:22:34;;;;;;;6.82;4.60;;;;;;;18.31;30.24;101831.13;5074732;28;20048;-83
2022/03/08 10:25:19;;;;;;;8.23;6.15;;;;;;;18.33;30.47;101826.53;5075627;28;20036;-83
2022/03/08 10:27:55;;;;;;;6.53;5.50;;;;;;;18.33;30.58;101829.22;5076240;28;20059;-82
2022/03/08 10:30:45;;;;;;;9.40;4.60;;;;;;;18.35;30.75;101813.88;5076787;28;20044;-83
2022/03/08 10:33:36;;;;;;;6.63;4.75;;;;;;;18.36;30.77;101818.31;5077456;28;20056;-82
2022/03/08 10:36:13;;;;;;;8.60;4.60;;;;;;;18.37;30.81;101810.16;5077602;28;20045;-82
2022/03/08 10:39:00;;;;;;;7.45;5.00;;;;;;;18.40;30.96;101812.63;5076314;28;20044;-81
2022/03/08 10:41:28;;;;;;;5.72;4.93;;;;;;;18.42;31.06;101809.84;5073599;28;20055;-81
2022/03/08 10:43:56;;;;;;;5.68;4.95;;;;;;;18.43;31.03;101803.50;5075441;28;20055;-80
2022/03/08 10:46:26;;;;;;;5.03;4.43;;;;;;;18.44;30.98;101802.56;5073551;28;20045;-81
2022/03/08 10:48:54;;;;;;;5.85;4.25;;;;;;;18.44;31.34;101794.53;5073585;28;20048;-84
2022/03/08 10:51:22;;;;;;;6.65;4.85;;;;;;;18.46;31.36;101800.63;5074838;28;20059;-82
2022/03/08 10:53:49;;;;;;;5.60;4.30;;;;;;;18.46;31.36;101793.44;5074328;28;20061;-82
2022/03/08 10:56:25;;;;;;;6.18;4.40;;;;;;;18.47;31.56;101795.19;5074555;28;20073;-81
2022/03/08 10:58:53;;;;;;;5.40;4.43;;;;;;;18.50;31.38;101810.19;5074996;28;20049;-83
2022/03/08 11:01:20;;;;;;;5.15;4.40;;;;;;;18.52;31.38;101792.19;5073275;28;20064;-82
2022/03/08 11:03:56;;;;;;;5.50;4.22;;;;;;;18.54;31.52;101792.94;5074765;28;20502;-82
2022/03/08 11:06:25;;;;;;;7.18;4.75;;;;;;;18.55;31.64;101789.28;5074877;28;20055;-81
2022/03/08 11:08:52;;;;;;;5.18;4.07;;;;;;;18.56;31.55;101785.66;5073904;28;20067;-81
2022/03/08 11:11:20;;;;;;;5.00;4.03;;;;;;;18.58;31.46;101782.84;5059383;28;20044;-81
2022/03/08 11:13:52;;;;;;;6.35;4.05;;;;;;;18.57;31.58;101784.69;5054206;28;20067;-81
2022/03/08 11:16:20;;;;;;;5.28;4.20;;;;;;;18.58;31.24;101775.66;5053795;28;20041;-82
2022/03/08 11:18:50;;;;;;;5.25;3.75;;;;;;;18.58;31.55;101775.66;5054070;28;20560;-82
2022/03/08 11:21:18;;;;;;;6.75;4.20;;;;;;;18.60;31.48;101773.75;5067501;28;20051;-81